Time;durP1;ratioP1;P1;durP2;ratioP2;P2;SDS_P1;SDS_P2;PMS_P1;PMS_P2;Temp;Humidity;BMP_temperature;BMP_pressure;BME280_temperature;BME280_humidity;BME280_pressure;Samples;Min_cycle;Max_cycle;Signal;HPM_P1;HPM_P2
2022/06/23 00:01:20;;;;;;;2.63;2.30;;;;;;;17.99;54.19;101106.44;5084789;28;20063;-79
2022/06/23 00:03:48;;;;;;;3.00;2.70;;;;;;;17.90;56.40;101104.16;5093622;28;20024;-80
2022/06/23 00:06:35;;;;;;;4.18;2.50;;;;;;;17.89;54.96;101103.31;5093986;28;20141;-80
2022/06/23 00:09:00;;;;;;;3.20;2.50;;;;;;;17.87;53.67;101094.63;5092685;28;20380;-80
2022/06/23 00:11:27;;;;;;;4.67;2.70;;;;;;;17.85;55.37;101090.38;5093939;28;20031;-80
2022/06/23 00:14:11;;;;;;;6.72;3.22;;;;;;;17.77;56.04;101088.06;5093438;28;20042;-79
2022/06/23 00:16:36;;;;;;;3.65;2.70;;;;;;;17.75;56.26;101095.13;5092768;28;20035;-80
2022/06/23 00:19:02;;;;;;;3.53;2.63;;;;;;;17.73;54.71;101100.47;5093199;28;20040;-80
2022/06/23 00:21:31;;;;;;;3.72;2.70;;;;;;;17.69;56.72;101090.16;5092747;28;20434;-79
2022/06/23 00:24:06;;;;;;;3.28;2.70;;;;;;;17.62;59.27;101089.56;5093391;28;20043;-80
2022/06/23 00:26:34;;;;;;;3.80;2.67;;;;;;;17.55;59.32;101078.44;5093040;28;20028;-79
2022/06/23 00:29:06;;;;;;;3.67;2.83;;;;;;;17.54;58.16;101087.22;5080674;28;20074;-79
2022/06/23 00:31:40;;;;;;;5.00;2.92;;;;;;;17.49;60.37;101078.72;5073247;28;20029;-79
2022/06/23 00:34:39;;;;;;;4.95;2.83;;;;;;;17.46;57.11;101086.69;5088455;28;20035;-80
2022/06/23 00:37:10;;;;;;;3.67;2.70;;;;;;;17.43;58.50;101097.31;5077656;28;20070;-80
2022/06/23 00:39:37;;;;;;;3.10;2.13;;;;;;;17.42;56.73;101101.72;5093361;28;20137;-80
2022/06/23 00:42:24;;;;;;;2.65;2.20;;;;;;;17.41;57.32;101102.63;5093139;28;20048;-80
2022/06/23 00:44:54;;;;;;;6.07;3.10;;;;;;;17.33;59.06;101096.84;5092103;28;20050;-79
2022/06/23 00:47:25;;;;;;;4.30;3.10;;;;;;;17.31;60.44;101096.03;5093353;28;20166;-80
2022/06/23 00:49:57;;;;;;;2.97;2.67;;;;;;;17.28;59.30;101088.28;5092157;28;20028;-80
2022/06/23 00:52:33;;;;;;;3.10;2.60;;;;;;;17.26;59.62;101103.22;5092901;28;20059;-79
2022/06/23 00:55:08;;;;;;;4.95;2.80;;;;;;;17.20;61.01;101088.59;5092916;28;20111;-80
2022/06/23 00:57:41;;;;;;;3.10;2.40;;;;;;;17.18;62.12;101093.03;5087704;28;20032;-80
2022/06/23 01:00:21;;;;;;;6.63;3.60;;;;;;;17.10;61.56;101079.38;5072984;28;20366;-80
2022/06/23 01:03:01;;;;;;;7.03;3.70;;;;;;;17.05;61.51;101076.09;5064504;28;20052;-80
2022/06/23 01:05:35;;;;;;;5.70;3.40;;;;;;;17.04;63.03;101075.22;5072200;28;20354;-80
2022/06/23 01:08:21;;;;;;;5.53;3.17;;;;;;;17.00;65.23;101076.25;5072620;28;20461;-80
2022/06/23 01:11:00;;;;;;;6.22;3.55;;;;;;;16.95;63.67;101080.81;5071871;28;20028;-79
2022/06/23 01:13:47;;;;;;;8.70;4.35;;;;;;;16.89;66.32;101081.03;5072611;28;20418;-80
2022/06/23 01:16:30;;;;;;;8.55;4.60;;;;;;;16.85;65.01;101069.78;5072872;28;20032;-80
2022/06/23 01:19:18;;;;;;;5.20;3.65;;;;;;;16.82;66.33;101068.16;5071352;28;20107;-80
2022/06/23 01:21:50;;;;;;;9.80;4.93;;;;;;;16.76;67.16;101067.53;5072161;28;20481;-79
2022/06/23 01:24:36;;;;;;;8.45;4.78;;;;;;;16.74;67.29;101071.97;5052295;28;20127;-80
2022/06/23 01:27:17;;;;;;;;;;;;;;;16.75;66.72;101071.94;5069149;28;20027;-80
2022/06/23 01:29:48;;;;;;;8.27;4.10;;;;;;;16.73;66.37;101063.25;5072329;28;19970;-80
2022/06/23 01:32:23;;;;;;;8.43;4.10;;;;;;;16.71;67.78;101064.22;5071158;28;20017;-80
2022/06/23 01:34:51;;;;;;;6.13;3.60;;;;;;;16.71;65.65;101065.06;5073106;28;20104;-80
2022/06/23 01:37:21;;;;;;;4.93;3.50;;;;;;;16.68;65.15;101073.03;5073275;28;20427;-80
2022/06/23 01:40:10;;;;;;;3.88;3.05;;;;;;;16.68;65.00;101073.91;5071450;28;20090;-80
2022/06/23 01:43:04;;;;;;;8.48;4.75;;;;;;;16.61;69.12;101069.78;5072592;28;20021;-80
2022/06/23 01:45:37;;;;;;;6.10;3.75;;;;;;;16.61;66.29;101074.19;5069912;28;20029;-80
2022/06/23 01:48:16;;;;;;;3.70;2.90;;;;;;;16.62;65.86;101081.16;5071999;28;20024;-80
2022/06/23 01:50:50;;;;;;;7.18;4.20;;;;;;;16.57;68.01;101072.59;5072113;28;20487;-79
2022/06/23 01:53:27;;;;;;;9.48;4.60;;;;;;;16.50;69.99;101079.81;5084113;28;20044;-79
2022/06/23 01:56:30;;;;;;;8.25;4.53;;;;;;;16.49;67.19;101068.50;5091518;28;20107;-79
2022/06/23 01:59:13;;;;;;;4.75;3.40;;;;;;;16.49;67.60;101070.28;5091886;28;20060;-79
2022/06/23 02:01:47;;;;;;;3.47;2.80;;;;;;;16.49;65.88;101073.72;5091200;28;20032;-79
2022/06/23 02:04:25;;;;;;;4.00;2.75;;;;;;;16.49;65.37;101062.41;5092254;28;20024;-79
2022/06/23 02:07:05;;;;;;;2.45;2.25;;;;;;;16.48;65.23;101056.31;5093383;28;20357;-79
2022/06/23 02:09:47;;;;;;;2.50;2.30;;;;;;;16.48;65.96;101061.53;5096137;28;20114;-78
2022/06/23 02:12:25;;;;;;;2.30;2.10;;;;;;;16.46;66.26;101060.75;5095695;28;20043;-79
2022/06/23 02:15:03;;;;;;;2.30;2.10;;;;;;;16.43;65.87;101070.47;5094600;28;20028;-79
2022/06/23 02:18:07;;;;;;;4.28;2.70;;;;;;;16.40;65.89;101066.22;5094778;28;20073;-79
2022/06/23 02:20:46;;;;;;;5.32;3.60;;;;;;;16.34;69.18;101067.28;5072485;28;20044;-79
2022/06/23 02:23:22;;;;;;;3.83;3.03;;;;;;;16.33;66.62;101057.72;5095162;28;20032;-79
2022/06/23 02:25:57;;;;;;;3.22;2.70;;;;;;;16.33;66.59;101054.22;5095358;28;20070;-79
2022/06/23 02:28:37;;;;;;;3.57;2.80;;;;;;;16.30;70.38;101057.81;5095049;28;20099;-79
2022/06/23 02:31:18;;;;;;;5.72;3.45;;;;;;;16.29;67.12;101060.50;5095997;28;20032;-79
2022/06/23 02:33:55;;;;;;;5.38;3.40;;;;;;;16.27;68.32;101063.16;5095232;28;20464;-79
2022/06/23 02:36:29;;;;;;;6.45;3.97;;;;;;;16.23;68.64;101053.72;5094707;28;20050;-79
2022/06/23 02:39:02;;;;;;;10.25;5.15;;;;;;;16.18;69.42;101058.25;5095222;28;20020;-79
2022/06/23 02:41:38;;;;;;;14.43;7.53;;;;;;;16.06;70.66;101057.78;5095639;28;20044;-79
2022/06/23 02:44:33;;;;;;;11.38;5.80;;;;;;;16.05;70.63;101058.69;5094816;28;20085;-79
2022/06/23 02:47:24;;;;;;;11.43;5.97;;;;;;;16.01;69.49;101053.59;5095577;28;20081;-79
2022/06/23 02:49:56;;;;;;;7.15;4.20;;;;;;;16.02;68.75;101055.31;5094044;28;20036;-79
2022/06/23 02:52:21;;;;;;;7.30;4.43;;;;;;;16.01;70.86;101058.84;5094396;28;20050;-80
2022/06/23 02:55:24;;;;;;;7.73;4.23;;;;;;;16.03;68.81;101051.81;5095052;28;20447;-79
2022/06/23 02:57:58;;;;;;;5.93;3.70;;;;;;;16.03;68.28;101057.91;5093559;28;20397;-80
2022/06/23 03:01:02;;;;;;;8.25;4.65;;;;;;;15.98;71.39;101051.13;5095232;28;20028;-80
2022/06/23 03:03:42;;;;;;;10.65;5.45;;;;;;;15.96;69.90;101051.16;5092906;28;20074;-79
2022/06/23 03:06:22;;;;;;;6.60;4.03;;;;;;;15.97;69.06;101046.78;5095111;28;20133;-79
2022/06/23 03:09:10;;;;;;;4.78;3.40;;;;;;;15.97;69.83;101044.19;5094268;28;20036;-79
2022/06/23 03:11:57;;;;;;;9.20;4.85;;;;;;;15.93;70.16;101032.94;5094101;28;20066;-79
2022/06/23 03:14:54;;;;;;;11.27;5.53;;;;;;;15.89;69.26;101034.81;5094804;28;20051;-79
2022/06/23 03:17:35;;;;;;;10.80;5.57;;;;;;;15.86;70.43;101029.69;5070802;28;20044;-79
2022/06/23 03:20:34;;;;;;;10.65;5.55;;;;;;;15.85;69.90;101027.13;5093701;28;20035;-79
2022/06/23 03:23:12;;;;;;;7.13;4.40;;;;;;;15.84;69.07;101025.38;5094597;28;20028;-80
2022/06/23 03:26:04;;;;;;;8.77;4.80;;;;;;;15.82;69.90;101021.97;5093775;28;20031;-80
2022/06/23 03:28:48;;;;;;;8.30;5.20;;;;;;;15.79;69.95;101027.31;5056124;28;20051;-79
2022/06/23 03:31:37;;;;;;;6.28;3.60;;;;;;;15.80;68.44;101023.78;5093573;28;20024;-80
2022/06/23 03:34:13;;;;;;;5.68;3.42;;;;;;;15.79;68.60;101022.91;5094720;28;20031;-80
2022/06/23 03:37:04;;;;;;;4.85;3.40;;;;;;;15.78;68.10;101023.81;5094350;28;20379;-80
2022/06/23 03:42:30;;;;;;;8.68;5.00;;;;;;;15.73;69.54;101025.75;5094674;28;20043;-80
2022/06/23 03:45:19;;;;;;;8.95;5.05;;;;;;;15.69;70.20;101022.41;5093889;28;20040;-80
2022/06/23 03:48:04;;;;;;;7.35;4.35;;;;;;;15.70;68.19;101034.56;5093807;28;20052;-79
2022/06/23 03:50:39;;;;;;;6.30;3.90;;;;;;;15.72;68.62;101037.97;5074089;28;20037;-80
2022/06/23 03:53:19;;;;;;;4.50;3.53;;;;;;;15.71;67.51;101038.03;5072996;28;20055;-80
2022/06/23 03:55:54;;;;;;;4.18;3.08;;;;;;;15.73;67.32;101034.44;5073513;28;20111;-78
2022/06/23 03:58:31;;;;;;;3.60;2.97;;;;;;;15.74;66.93;101037.94;5073608;28;20032;-79
2022/06/23 04:01:15;;;;;;;3.00;2.70;;;;;;;15.75;67.29;101042.25;5072775;28;20056;-80
2022/06/23 04:03:49;;;;;;;2.60;2.40;;;;;;;15.75;67.03;101040.50;5073436;28;20476;-81
2022/06/23 04:06:29;;;;;;;2.30;2.10;;;;;;;15.78;67.70;101036.06;5073662;28;20078;-80
2022/06/23 04:09:00;;;;;;;5.28;3.53;;;;;;;15.80;67.45;101042.94;5073590;28;20029;-80
2022/06/23 04:11:46;;;;;;;6.35;3.00;;;;;;;15.75;66.75;101035.25;5072802;28;20048;-80
2022/06/23 04:14:19;;;;;;;3.03;2.60;;;;;;;15.77;67.14;101037.81;5073030;28;20059;-81
2022/06/23 04:16:49;;;;;;;2.63;2.42;;;;;;;15.79;66.41;101029.94;5080259;28;20028;-80
2022/06/23 04:19:25;;;;;;;2.50;2.30;;;;;;;15.79;66.55;101038.63;5093801;28;20039;-80
2022/06/23 04:21:58;;;;;;;2.28;2.08;;;;;;;15.81;66.49;101035.97;5093045;28;20028;-80
2022/06/23 04:24:25;;;;;;;2.92;2.40;;;;;;;15.82;67.36;101027.22;5093841;28;20031;-81
2022/06/23 04:26:56;;;;;;;3.85;2.67;;;;;;;15.81;68.21;101030.72;5093515;28;20457;-81
2022/06/23 04:29:36;;;;;;;7.28;3.70;;;;;;;15.77;68.00;101029.97;5092177;28;20019;-81
2022/06/23 04:32:03;;;;;;;6.90;3.95;;;;;;;15.78;67.50;101021.19;5092276;28;20468;-80
2022/06/23 04:34:34;;;;;;;5.07;3.40;;;;;;;15.77;67.83;101014.25;5092708;28;20024;-79
2022/06/23 04:37:00;;;;;;;7.03;3.90;;;;;;;15.77;68.17;101014.25;5093184;28;20127;-79
2022/06/23 04:39:38;;;;;;;8.17;4.77;;;;;;;15.78;68.49;101021.19;5093564;28;20115;-79
2022/06/23 04:42:19;;;;;;;6.85;4.22;;;;;;;15.80;67.11;101022.00;5091274;28;20024;-80
2022/06/23 04:44:47;;;;;;;5.97;3.92;;;;;;;15.82;66.31;101029.81;5092650;28;20032;-80
2022/06/23 04:47:19;;;;;;;4.80;3.55;;;;;;;15.85;66.36;101048.94;5092505;28;20056;-79
2022/06/23 04:49:50;;;;;;;3.65;3.15;;;;;;;15.90;66.68;101036.50;5092215;28;20024;-79
2022/06/23 04:52:24;;;;;;;3.22;2.70;;;;;;;15.94;66.21;101029.41;5093126;28;20044;-79
2022/06/23 04:55:13;;;;;;;5.03;2.97;;;;;;;16.00;66.13;101030.97;5092793;28;20370;-80
2022/06/23 04:57:47;;;;;;;3.53;2.85;;;;;;;16.03;67.78;101038.72;5092195;28;20028;-80
2022/06/23 05:00:29;;;;;;;4.95;3.70;;;;;;;16.05;66.68;101035.13;5093181;28;20067;-80
2022/06/23 05:02:58;;;;;;;4.85;3.22;;;;;;;16.09;66.19;101033.28;5092206;28;20032;-80
2022/06/23 05:05:29;;;;;;;3.53;2.90;;;;;;;16.14;66.65;101033.94;5093070;28;20024;-79
2022/06/23 05:08:06;;;;;;;3.00;2.60;;;;;;;16.20;65.89;101040.72;5092194;28;20028;-79
2022/06/23 05:10:44;;;;;;;3.00;2.70;;;;;;;16.27;65.26;101036.13;5092334;28;20078;-80
2022/06/23 05:13:18;;;;;;;6.30;3.90;;;;;;;16.29;66.55;101032.53;5093352;28;20027;-79
2022/06/23 05:16:10;;;;;;;10.65;5.80;;;;;;;16.33;65.99;101034.16;5092910;28;20039;-79
2022/06/23 05:18:47;;;;;;;6.78;4.10;;;;;;;16.41;65.11;101035.63;5091875;28;20468;-79
2022/06/23 05:21:18;;;;;;;3.95;3.20;;;;;;;16.45;65.65;101048.53;5092718;28;20028;-79
2022/06/23 05:23:59;;;;;;;3.83;3.00;;;;;;;16.52;65.34;101050.06;5091677;28;20050;-79
2022/06/23 05:26:42;;;;;;;3.40;2.95;;;;;;;16.57;65.42;101049.00;5092946;28;20107;-79
2022/06/23 05:29:18;;;;;;;4.47;2.83;;;;;;;16.63;65.20;101046.19;5093049;28;20020;-80
2022/06/23 05:31:50;;;;;;;6.32;3.92;;;;;;;16.64;64.94;101033.00;5091632;28;20024;-80
2022/06/23 05:34:24;;;;;;;7.47;4.03;;;;;;;16.72;65.31;101043.19;5093454;28;20020;-80
2022/06/23 05:37:24;;;;;;;4.35;3.20;;;;;;;16.78;64.95;101042.94;5093870;28;20024;-80
2022/06/23 05:40:02;;;;;;;4.95;3.40;;;;;;;16.89;63.28;101018.13;5092222;28;20062;-80
2022/06/23 05:42:32;;;;;;;5.30;3.35;;;;;;;16.91;64.05;101022.38;5097144;28;20020;-80
2022/06/23 05:45:09;;;;;;;4.18;3.40;;;;;;;16.97;63.77;101029.19;5096316;28;20520;-80
2022/06/23 05:47:36;;;;;;;3.42;3.03;;;;;;;17.05;64.07;101032.34;5096581;28;20388;-79
2022/06/23 05:50:07;;;;;;;4.32;3.10;;;;;;;17.12;64.00;101032.97;5096800;28;20568;-79
2022/06/23 05:52:44;;;;;;;3.00;2.70;;;;;;;17.19;63.52;101029.19;5095713;28;20040;-80
2022/06/23 05:55:18;;;;;;;2.50;2.30;;;;;;;17.28;63.50;101033.22;5096794;28;20036;-79
2022/06/23 05:57:58;;;;;;;3.13;2.67;;;;;;;17.36;62.50;101028.50;5096455;28;20028;-80
2022/06/23 06:00:46;;;;;;;4.60;3.20;;;;;;;17.47;63.38;101032.44;5095963;28;20540;-80
2022/06/23 06:03:22;;;;;;;3.55;2.83;;;;;;;17.65;62.61;101036.06;5096488;28;20566;-80
2022/06/23 06:05:51;;;;;;;4.55;2.72;;;;;;;18.02;62.33;101043.25;5096223;28;20024;-80
2022/06/23 06:08:21;;;;;;;3.38;2.72;;;;;;;18.93;62.08;101047.97;5096262;28;20028;-80
2022/06/23 06:10:47;;;;;;;2.97;2.40;;;;;;;20.65;58.49;101044.63;5096334;28;20534;-79
2022/06/23 06:13:36;;;;;;;2.47;2.28;;;;;;;22.46;55.77;101039.50;5096316;28;20051;-80
2022/06/23 06:16:04;;;;;;;2.60;2.40;;;;;;;23.71;51.32;101037.69;5096689;28;20108;-80
2022/06/23 06:18:37;;;;;;;2.15;2.00;;;;;;;24.13;50.83;101033.03;5096370;28;20388;-80
2022/06/23 06:21:05;;;;;;;2.10;1.90;;;;;;;24.12;51.18;101031.34;5095949;28;20058;-80
2022/06/23 06:23:36;;;;;;;3.35;2.70;;;;;;;23.76;49.38;101030.25;5096764;28;20024;-80
2022/06/23 06:26:03;;;;;;;2.97;2.50;;;;;;;23.43;50.04;101028.94;5096253;28;20032;-80
2022/06/23 06:28:33;;;;;;;3.70;2.90;;;;;;;23.30;50.15;101034.19;5095171;28;20020;-80
2022/06/23 06:31:18;;;;;;;5.63;3.00;;;;;;;23.24;51.13;101040.75;5095748;28;20028;-80
2022/06/23 06:34:02;;;;;;;3.03;2.70;;;;;;;23.36;50.08;101030.31;5095399;28;20032;-80
2022/06/23 06:36:41;;;;;;;3.70;2.70;;;;;;;23.42;51.12;101028.09;5095366;28;20031;-80
2022/06/23 06:39:12;;;;;;;2.60;2.25;;;;;;;23.56;51.49;101027.16;5095962;28;20443;-81
2022/06/23 06:41:44;;;;;;;3.03;2.15;;;;;;;23.68;51.23;101036.09;5094458;28;20103;-81
2022/06/23 06:44:11;;;;;;;3.03;2.60;;;;;;;23.77;50.45;101039.06;5095840;28;20118;-80
2022/06/23 06:46:39;;;;;;;3.60;2.70;;;;;;;23.80;50.76;101037.03;5095227;28;20031;-81
2022/06/23 06:49:06;;;;;;;3.33;2.67;;;;;;;23.82;49.96;101029.84;5095110;28;20438;-80
2022/06/23 06:51:32;;;;;;;3.30;2.50;;;;;;;23.83;51.03;101038.63;5095624;28;20054;-80
2022/06/23 06:54:10;;;;;;;4.07;2.67;;;;;;;23.82;50.75;101043.09;5094844;28;20079;-80
2022/06/23 06:56:45;;;;;;;3.17;2.60;;;;;;;23.84;49.13;101035.03;5094569;28;20028;-81
2022/06/23 06:59:23;;;;;;;3.95;3.13;;;;;;;23.82;50.84;101028.97;5095045;28;20028;-81
2022/06/23 07:01:56;;;;;;;3.40;3.05;;;;;;;23.89;50.85;101027.63;5095500;28;20089;-81
2022/06/23 07:04:48;;;;;;;4.25;3.30;;;;;;;23.93;50.62;101028.25;5094979;28;20016;-80
2022/06/23 07:07:21;;;;;;;3.92;3.20;;;;;;;24.04;49.19;101042.47;5095451;28;20074;-79
2022/06/23 07:09:54;;;;;;;3.75;2.97;;;;;;;24.08;50.52;101045.78;5094905;28;20062;-80
2022/06/23 07:12:24;;;;;;;7.20;3.22;;;;;;;24.13;49.47;101043.66;5095654;28;20047;-80
2022/06/23 07:14:53;;;;;;;3.65;2.90;;;;;;;24.18;49.75;101043.31;5094788;28;20479;-80
2022/06/23 07:17:32;;;;;;;5.07;2.92;;;;;;;24.28;50.49;101049.69;5094415;28;20027;-79
2022/06/23 07:20:23;;;;;;;4.15;3.20;;;;;;;24.36;50.22;101044.72;5095026;28;20442;-80
2022/06/23 07:22:55;;;;;;;4.40;3.30;;;;;;;24.49;49.63;101039.38;5095457;28;20028;-79
2022/06/23 07:25:26;;;;;;;3.33;2.70;;;;;;;24.60;48.79;101040.41;5094448;28;20107;-80
2022/06/23 07:28:09;;;;;;;2.60;2.40;;;;;;;24.71;50.09;101035.19;5094974;28;20028;-80
2022/06/23 07:30:42;;;;;;;3.28;2.60;;;;;;;24.80;50.17;101037.19;5093631;28;20464;-80
2022/06/23 07:33:17;;;;;;;3.03;2.60;;;;;;;24.94;49.85;101038.81;5094783;28;20035;-80
2022/06/23 07:35:48;;;;;;;3.73;2.90;;;;;;;24.99;49.78;101027.88;5094093;28;20036;-80
2022/06/23 07:38:25;;;;;;;3.67;2.60;;;;;;;25.07;50.07;101029.97;5093495;28;20463;-80
2022/06/23 07:41:09;;;;;;;2.95;2.58;;;;;;;25.18;50.11;101027.34;5094011;28;20448;-81
2022/06/23 07:43:58;;;;;;;3.03;2.70;;;;;;;25.35;49.90;101036.72;5094693;28;20372;-81
2022/06/23 07:46:24;;;;;;;3.10;2.85;;;;;;;25.48;49.51;101034.03;5093994;28;20128;-80
2022/06/23 07:48:49;;;;;;;5.97;3.13;;;;;;;25.57;49.45;101027.16;5094166;28;20497;-80
2022/06/23 07:51:15;;;;;;;4.40;3.20;;;;;;;25.63;49.87;101032.00;5094051;28;20104;-80
2022/06/23 07:53:44;;;;;;;2.77;2.57;;;;;;;25.74;49.55;101024.06;5092964;28;20169;-80
2022/06/23 07:56:16;;;;;;;3.60;2.60;;;;;;;25.85;49.68;101022.38;5094229;28;20043;-81
2022/06/23 07:58:42;;;;;;;2.75;2.40;;;;;;;25.98;49.53;101031.09;5092654;28;20039;-80
2022/06/23 08:01:17;;;;;;;2.70;2.50;;;;;;;26.11;48.95;101030.19;5094583;28;20016;-81
2022/06/23 08:03:55;;;;;;;3.22;2.40;;;;;;;26.14;49.34;101024.59;5093450;28;20076;-81
2022/06/23 08:06:21;;;;;;;3.25;2.35;;;;;;;26.22;49.48;101024.84;5093411;28;20158;-81
2022/06/23 08:08:54;;;;;;;2.60;2.40;;;;;;;26.32;49.23;101025.81;5094142;28;20106;-81
2022/06/23 08:14:12;;;;;;;;;;;;;;;26.46;49.69;101027.38;5093712;28;20085;-81
2022/06/23 08:16:50;;;;;;;2.53;2.33;;;;;;;26.55;48.99;101024.94;5093298;28;20324;-81
2022/06/23 08:19:19;;;;;;;2.38;2.17;;;;;;;26.56;49.19;101024.81;5093769;28;20024;-81
2022/06/23 08:21:51;;;;;;;2.20;2.00;;;;;;;26.63;48.43;101023.34;5092651;28;20027;-81
2022/06/23 08:24:23;;;;;;;2.28;2.08;;;;;;;26.72;49.08;101015.59;5093500;28;20410;-81
2022/06/23 08:26:55;;;;;;;2.10;2.00;;;;;;;26.79;49.46;101016.81;5092420;28;20024;-81
2022/06/23 08:29:26;;;;;;;2.00;1.90;;;;;;;26.92;49.83;101014.00;5093550;28;20016;-81
2022/06/23 08:31:51;;;;;;;1.67;1.58;;;;;;;27.07;49.12;101015.41;5093256;28;20090;-81
2022/06/23 08:34:17;;;;;;;8.45;4.18;;;;;;;27.12;47.24;101015.84;5092788;28;20476;-82
2022/06/23 08:36:49;;;;;;;5.00;2.90;;;;;;;27.06;48.42;101002.19;5093048;28;20046;-81
2022/06/23 08:39:24;;;;;;;4.13;3.20;;;;;;;27.15;49.36;101012.06;5093227;28;20305;-81
2022/06/23 08:42:05;;;;;;;2.70;2.50;;;;;;;27.34;49.02;101015.88;5092369;28;20035;-81
2022/06/23 08:44:41;;;;;;;2.55;2.33;;;;;;;27.43;47.98;101005.28;5093379;28;20039;-82
2022/06/23 08:47:45;;;;;;;7.30;3.85;;;;;;;27.36;46.92;101012.09;5093347;28;20020;-81
2022/06/23 08:50:23;;;;;;;3.60;2.90;;;;;;;27.39;49.00;101016.31;5075635;28;20055;-81
2022/06/23 08:53:34;;;;;;;3.40;2.95;;;;;;;27.49;48.43;101014.59;5092708;28;20048;-81
2022/06/23 08:56:09;;;;;;;3.83;3.03;;;;;;;27.64;48.55;101003.63;5091594;28;20074;-81
2022/06/23 08:58:47;;;;;;;3.22;2.42;;;;;;;27.76;48.64;101007.91;5092968;28;20370;-81
2022/06/23 09:01:36;;;;;;;6.25;3.00;;;;;;;27.76;46.83;101010.56;5093230;28;20111;-81
2022/06/23 09:04:14;;;;;;;4.60;3.05;;;;;;;27.76;47.57;101007.91;5092118;28;20051;-82
2022/06/23 09:06:55;;;;;;;6.35;3.03;;;;;;;27.77;47.53;101004.25;5092698;28;20376;-81
2022/06/23 09:09:48;;;;;;;4.03;2.70;;;;;;;27.81;46.96;101011.00;5092306;28;20063;-81
2022/06/23 09:12:23;;;;;;;4.90;2.50;;;;;;;27.89;47.80;101008.53;5092800;28;20026;-81
2022/06/23 09:14:57;;;;;;;2.53;2.30;;;;;;;28.05;47.94;101008.03;5092031;28;20073;-81
2022/06/23 09:17:45;;;;;;;4.78;2.42;;;;;;;28.19;46.28;101000.69;5092033;28;20113;-81
2022/06/23 09:20:41;;;;;;;5.93;2.90;;;;;;;28.24;46.25;101000.28;5092756;28;20468;-81
2022/06/23 09:23:48;;;;;;;4.47;2.72;;;;;;;28.21;47.18;100998.69;5092113;28;20083;-81
2022/06/23 09:26:27;;;;;;;6.57;2.45;;;;;;;28.30;47.25;100997.91;5063497;28;20124;-81
2022/06/23 09:28:56;;;;;;;6.05;3.10;;;;;;;28.40;45.94;101000.59;5092529;28;20397;-81
2022/06/23 09:31:51;;;;;;;5.45;2.70;;;;;;;28.47;46.21;101000.88;5091958;28;20031;-82
2022/06/23 09:34:36;;;;;;;;;;;;;;;28.58;47.49;100991.94;5093244;28;20025;-81
2022/06/23 09:37:29;;;;;;;6.15;2.60;;;;;;;28.73;45.55;100987.06;5091899;28;20288;-81
2022/06/23 09:39:54;;;;;;;5.40;2.67;;;;;;;28.76;47.10;100990.28;5092411;28;20365;-82
2022/06/23 09:42:32;;;;;;;;;;;;;;;28.94;48.07;100981.56;5092956;28;20016;-82
2022/06/23 09:45:43;;;;;;;2.50;2.10;;;;;;;29.09;47.33;100980.16;5091721;28;19912;-82
2022/06/23 09:48:27;;;;;;;4.30;2.45;;;;;;;29.23;47.01;100978.06;5061056;28;20036;-81
2022/06/23 09:51:18;;;;;;;4.30;2.42;;;;;;;29.38;46.37;100976.66;5092309;28;20020;-81
2022/06/23 09:54:16;;;;;;;5.25;2.80;;;;;;;29.43;45.02;100979.72;5092053;28;20037;-81
2022/06/23 09:57:02;;;;;;;4.90;2.60;;;;;;;29.33;45.92;100983.41;5092277;28;20082;-81
2022/06/23 09:59:35;;;;;;;5.47;2.60;;;;;;;29.39;45.86;100977.50;5091665;28;20028;-81
2022/06/23 10:02:19;;;;;;;4.35;2.40;;;;;;;29.52;46.63;100964.66;5092193;28;20028;-81
2022/06/23 10:04:59;;;;;;;2.40;2.15;;;;;;;29.57;46.11;100964.22;5092313;28;20036;-81
2022/06/23 10:07:39;;;;;;;6.30;2.90;;;;;;;29.67;45.95;100964.19;5091634;28;20028;-81
2022/06/23 10:10:43;;;;;;;4.00;2.50;;;;;;;29.87;46.77;100965.81;5092516;28;20028;-81
2022/06/23 10:13:23;;;;;;;6.53;2.90;;;;;;;29.99;45.88;100965.66;5052286;28;20036;-81
2022/06/23 10:16:14;;;;;;;4.72;2.65;;;;;;;30.10;46.39;100980.66;5084489;28;20036;-82
2022/06/23 10:19:00;;;;;;;4.97;2.70;;;;;;;30.25;45.49;100973.81;5091925;28;20358;-82
2022/06/23 10:21:50;;;;;;;5.00;2.65;;;;;;;30.32;45.23;100971.38;5091865;28;20066;-81
2022/06/23 10:24:28;;;;;;;6.47;2.80;;;;;;;30.03;45.78;100972.38;5092226;28;20499;-81
2022/06/23 10:27:08;;;;;;;4.45;2.50;;;;;;;29.75;45.98;100972.34;5091907;28;20507;-81
2022/06/23 10:30:08;;;;;;;2.58;2.25;;;;;;;29.52;46.45;100966.47;5095770;28;20477;-81
2022/06/23 10:32:53;;;;;;;2.80;2.20;;;;;;;29.50;47.62;100968.47;5069402;28;20036;-81
2022/06/23 10:35:46;;;;;;;2.42;2.10;;;;;;;29.84;47.26;100965.25;5095170;28;20055;-81
2022/06/23 10:38:52;;;;;;;3.53;2.40;;;;;;;30.00;46.87;100954.78;5095527;28;20046;-81
2022/06/23 10:41:26;;;;;;;4.30;2.30;;;;;;;30.20;45.58;100952.88;5094071;28;20020;-82
2022/06/23 10:43:51;;;;;;;4.47;2.20;;;;;;;30.38;46.38;100952.03;5095351;28;20036;-80
2022/06/23 10:46:42;;;;;;;2.50;2.10;;;;;;;30.41;46.02;100954.41;5085055;28;20050;-81
2022/06/23 10:49:22;;;;;;;2.85;2.55;;;;;;;30.59;45.54;100958.97;5090209;28;20024;-81
2022/06/23 10:52:22;;;;;;;3.63;2.70;;;;;;;30.83;46.16;100947.66;5089674;28;20075;-80
2022/06/23 10:55:06;;;;;;;5.50;2.90;;;;;;;30.93;45.42;100947.56;5085140;28;20036;-81
2022/06/23 10:57:53;;;;;;;3.88;2.70;;;;;;;30.99;44.48;100946.94;5094244;28;20107;-81
2022/06/23 11:00:24;;;;;;;5.18;2.80;;;;;;;30.85;45.63;100945.63;5095066;28;20468;-81
2022/06/23 11:03:39;;;;;;;4.47;2.75;;;;;;;30.70;45.73;100948.03;5094635;28;20119;-81
2022/06/23 11:06:13;;;;;;;;;;;;;;;30.72;45.54;100940.69;5096277;28;20028;-80
2022/06/23 11:09:00;;;;;;;4.80;2.72;;;;;;;30.78;44.95;100931.19;5094081;28;19965;-81
2022/06/23 11:11:55;;;;;;;5.57;2.80;;;;;;;31.03;45.70;100937.56;5094998;28;20388;-81
2022/06/23 11:14:35;;;;;;;5.05;2.70;;;;;;;31.29;45.16;100928.75;5095203;28;20047;-81
2022/06/23 11:17:26;;;;;;;2.47;2.28;;;;;;;31.33;45.04;100927.44;5094021;28;20035;-80
2022/06/23 11:20:20;;;;;;;5.82;2.80;;;;;;;31.27;44.59;100930.75;5094864;28;20044;-81
2022/06/23 11:23:05;;;;;;;5.32;2.83;;;;;;;31.42;41.50;100929.19;5093342;28;20039;-81
2022/06/23 11:25:50;;;;;;;6.80;2.85;;;;;;;31.61;41.71;100929.94;5094852;28;20056;-81
2022/06/23 11:28:25;;;;;;;4.90;2.70;;;;;;;31.69;43.10;100926.50;5095025;28;20044;-81
2022/06/23 11:31:20;;;;;;;5.93;2.58;;;;;;;31.80;41.54;100922.69;5094036;28;20028;-81
2022/06/23 11:33:45;;;;;;;;;;;;;;;31.70;42.41;100925.50;5094931;28;20119;-81
2022/06/23 11:36:22;;;;;;;4.50;2.42;;;;;;;31.77;42.56;100918.47;5094681;28;20003;-81
2022/06/23 11:39:22;;;;;;;6.65;2.70;;;;;;;31.90;42.55;100931.44;5092574;28;20039;-81
2022/06/23 11:42:07;;;;;;;2.75;2.22;;;;;;;31.86;42.18;100930.91;5086223;28;20036;-81
2022/06/23 11:44:51;;;;;;;;;;;;;;;31.66;42.89;100924.09;5094191;28;20070;-81
2022/06/23 11:48:03;;;;;;;2.55;2.30;;;;;;;31.60;43.22;100924.75;5094124;28;19912;-82
2022/06/23 11:50:40;;;;;;;3.28;2.20;;;;;;;31.83;43.65;100920.53;5079834;28;20028;-81
2022/06/23 11:53:32;;;;;;;3.72;2.30;;;;;;;32.07;41.83;100918.94;5093630;28;20051;-81
2022/06/23 11:56:05;;;;;;;4.68;2.50;;;;;;;32.21;41.55;100912.06;5089447;28;20028;-81
2022/06/23 11:59:05;;;;;;;2.95;2.30;;;;;;;32.41;41.43;100907.28;5093498;28;20051;-81
2022/06/23 12:01:30;;;;;;;5.55;2.33;;;;;;;32.61;39.51;100897.03;5094067;28;20050;-81
2022/06/23 12:04:14;;;;;;;2.78;2.20;;;;;;;32.67;40.82;100910.81;5093557;28;20536;-82
2022/06/23 12:06:56;;;;;;;2.10;2.00;;;;;;;32.75;40.86;100903.59;5093003;28;20077;-81
2022/06/23 12:10:08;;;;;;;2.00;1.90;;;;;;;33.05;41.13;100911.16;5093962;28;20469;-81
2022/06/23 12:12:35;;;;;;;5.55;2.53;;;;;;;33.16;39.79;100901.91;5082074;28;20031;-81
2022/06/23 12:15:05;;;;;;;3.08;2.58;;;;;;;33.20;39.48;100906.75;5091871;28;20024;-81
2022/06/23 12:17:41;;;;;;;5.63;2.72;;;;;;;33.16;39.68;100913.47;5093871;28;20048;-81
2022/06/23 12:20:25;;;;;;;3.72;2.50;;;;;;;33.15;40.26;100902.91;5092504;28;20419;-82
2022/06/23 12:23:25;;;;;;;3.38;2.42;;;;;;;32.89;40.46;100901.25;5086200;28;20020;-81
2022/06/23 12:26:02;;;;;;;2.45;2.13;;;;;;;32.67;40.45;100903.59;5088226;28;20071;-81
2022/06/23 12:28:46;;;;;;;2.20;2.00;;;;;;;32.79;41.08;100899.59;5090169;28;20028;-81